Antioch, Ohio
Current Conditions -  °F | °C
As of 3:53 AM on Thursday 23 Oct 2014 (Local Time) from KPKB Reporting Station
Broken Clouds Broken Clouds  
Wind Chill: 44°   Ceiling: 2000
Heat Index: 46°   Visibility: 10mi
Dew Point: 41°   Wind: 5mph
Humidity: 83%   Direction: 300°WNW
Pressure: 30.21"   Gusts: NA
Location:  39.7388°N, 81.0973°W
Report Text: KPKB 230753Z AUTO 30004KT 10SM BKN020 BKN041 08/05 A3021 RMK AO2 SLP230 T00780050
Loading
Personal Weather Stations






























Interactive Weather Map New forecast layout! Learn more

10-Day Weather Forecast

Advertisements
Track Severe Weather on mobile